KDVN

Davenport Municipal Airport

Davenport, Iowa, USA
METAR KDVN 241952Z AUTO 10014KT 1 3/4SM BR OVC005 03/01 A2984 RMK AO2 RAE04UPB04E35 SLP109 P0000 T00280011
Observed Flight Rules
Feb-24 @ 19:52 UTC (21 minutes ago) Instrument Flight Rules
Wind Visibility Clouds Conditions
100° at 14 knots 1 3/4 miles
  • Overcast at 500' AGL
  • Mist
Temperatures Readings Precipitation
Current 3°C / 37°F
Dewpoint 1°C / 34°F
Humidity 87%
Altimeter 29.84" Hg
Pressure 1010.9 hPa
Elevation 230
Current Rain 0.005
METAR KDVN 241952Z AUTO 10014KT 1 3/4SM BR OVC005 03/01 A2984 RMK AO2 RAE04UPB04E35 SLP109 P0000 T00280011
Observed Flight Rules
Feb-24 @ 19:52 UTC
(21 minutes ago)
IFR
Wind Visibility
100° at 14 knots 1 3/4 miles
Clouds
  • Overcast at 500' AGL
Conditions
  • Mist
Temperature Dewpoint
3°C / 37°F 1°C / 34°F
Humidity Altimeter Pressure
87% 29.84" Hg 1010.9 hPa
Current Rain
0.005